Ionia, New York
Current Conditions -  °F | °C
As of 6:54 PM on Saturday 20 Dec 2014 (Local Time) from KROC Reporting Station
Overcast Overcast  
Wind Chill: 30°   Ceiling: 2600
Heat Index: 30°   Visibility: 10mi
Dew Point: 21°   Wind: 3mph
Humidity: 69%   Direction: 30°NNE
Pressure: 30.28"   Gusts: NA
Location:  42.93°N, 77.48°W
Report Text: KROC 202354Z 03003KT 10SM OVC026 M01/M06 A3028 RMK AO2 SLP265 T10111061 10000 21011 51009
Loading
Personal Weather Stations






























Interactive Weather Map New forecast layout! Learn more

10-Day Weather Forecast

Advertisements
Track Severe Weather on mobile